Estación Meteorológica Peña el Pijo (Robertgarden) [ 08/17/18 05:40:42 CEST ]

Fecha Hora Presion(HPa) Temp (°C) Humedad % Rocio (°C) Viento ( m/s) Direccion Lluvia 1Hora(mm) Lluvia 24H(mm) LLuvia Total(mm)
2018-Jun-23 01:01:56 1012.400 15.6 60 7.9         266.25
2018-Jun-23 02:01:52 1012.300 14.7 64 7.9         266.25
2018-Jun-23 03:01:43 1012.100 13.5 67 7.5         266.25
2018-Jun-23 04:01:37 1012.000 12.8 70 7.5         266.25
2018-Jun-23 05:03:35 1011.900 12.4 72 7.5         266.25
2018-Jun-23 06:01:41 1011.500 11.9 74 7.4         266.25
2018-Jun-23 07:01:54 1011.600 11.4 76 7.3         266.25
2018-Jun-23 08:01:51 1011.700 13.5 78 9.7         266.25
2018-Jun-23 09:02:01 1011.600 20.1 67 13.8         266.25
2018-Jun-23 10:01:46 1011.600 26.7 46 14.1         266.25
2018-Jun-23 11:01:55 1011.600 30.8 31 11.7         266.25
2018-Jun-23 12:01:38 1011.800 32.4 27 10.8         266.25
2018-Jun-23 13:01:42 1011.700 33.4 25 10.5         266.25
2018-Jun-23 14:01:39 1011.800 31.4 24 8.2 1.3 SE     266.25
2018-Jun-23 15:01:38 1011.600 31.6 23 7.8 2.5 S     266.25
2018-Jun-23 16:01:49 1011.200 32.2 23 7.8 2.5 S     266.25
2018-Jun-23 17:01:39 1010.600 33.4 24 9.9         266.25
2018-Jun-23 18:01:41 1010.500 32.5 25 9.7 0.6 S     266.25
2018-Jun-23 19:01:37 1010.300 31.8 27 9.7         266.25
2018-Jun-23 20:01:25 1010.500 27.4 33 9.2         266.25
2018-Jun-23 21:01:39 1010.500 25.0 37 9.2         266.25
2018-Jun-23 22:01:20 1011.300 23.0 41 8.7         266.25
2018-Jun-23 23:01:09 1011.700 20.2 49 8.8         266.25

Temperatura Máxima:33°    Temperatura Mínima:11°
Presión Máxima:1012.400 Hpa    Presión Mínima:1010.300 Hpa


Volver